Аэропорт: Звартноц. Ереван

ICAO: UDYZ

METAR:
2019-11-21 01:30:00
UDYZ 210130Z 30001KT 2300 BR NSC M04/M08 Q1021 R09/010070 NOSIG
METAR:
2019-11-20 23:02:00
TAF UDYZ 202302Z 2100/2124 VRB04KT 2000 BR NSC BECMG 2107/2108 14006KT 6000 NSW